sensor_id;sensor_type;location;lat;lon;timestamp;pressure;altitude;pressure_sealevel;temperature;humidity
5053;BME280;2545;50.892;5.740;2023-04-25T00:00:00;56272.88;;;-142.21;81.71
5053;BME280;2545;50.892;5.740;2023-04-25T00:02:25;56241.50;;;-142.21;81.99
5053;BME280;2545;50.892;5.740;2023-04-25T00:04:50;56317.97;;;-142.21;82.03
5053;BME280;2545;50.892;5.740;2023-04-25T00:07:17;56237.59;;;-142.21;82.67
5053;BME280;2545;50.892;5.740;2023-04-25T00:09:42;56261.13;;;-142.21;83.07
5053;BME280;2545;50.892;5.740;2023-04-25T00:12:08;56286.63;;;-142.21;83.49
5053;BME280;2545;50.892;5.740;2023-04-25T00:14:33;56229.75;;;-142.21;84.04
5053;BME280;2545;50.892;5.740;2023-04-25T00:16:59;56259.16;;;-142.21;84.18
5053;BME280;2545;50.892;5.740;2023-04-25T00:19:24;56292.50;;;-142.21;84.34
5053;BME280;2545;50.892;5.740;2023-04-25T00:21:52;56288.56;;;-142.21;84.81
5053;BME280;2545;50.892;5.740;2023-04-25T00:24:17;56278.78;;;-142.21;85.23
5053;BME280;2545;50.892;5.740;2023-04-25T00:26:42;56253.28;;;-142.21;85.78
5053;BME280;2545;50.892;5.740;2023-04-25T00:29:07;56259.16;;;-142.21;85.76
5053;BME280;2545;50.892;5.740;2023-04-25T00:31:33;56286.63;;;-142.21;86.10
5053;BME280;2545;50.892;5.740;2023-04-25T00:33:58;56274.84;;;-142.21;86.10
5053;BME280;2545;50.892;5.740;2023-04-25T00:36:24;56284.66;;;-142.21;85.92
5053;BME280;2545;50.892;5.740;2023-04-25T00:38:49;56272.88;;;-142.21;85.51
5053;BME280;2545;50.892;5.740;2023-04-25T00:41:14;56263.06;;;-142.21;85.27
5053;BME280;2545;50.892;5.740;2023-04-25T00:43:44;56237.59;;;-142.21;84.99
5053;BME280;2545;50.892;5.740;2023-04-25T00:46:10;56245.44;;;-142.21;85.60
5053;BME280;2545;50.892;5.740;2023-04-25T00:48:35;56257.19;;;-142.21;85.69
5053;BME280;2545;50.892;5.740;2023-04-25T00:51:00;56259.16;;;-142.21;86.17
5053;BME280;2545;50.892;5.740;2023-04-25T00:53:27;56247.38;;;-142.21;85.96
5053;BME280;2545;50.892;5.740;2023-04-25T00:55:54;56272.88;;;-142.21;86.33
5053;BME280;2545;50.892;5.740;2023-04-25T00:58:20;56268.97;;;-142.21;86.42
5053;BME280;2545;50.892;5.740;2023-04-25T01:00:47;56288.56;;;-142.21;86.74
5053;BME280;2545;50.892;5.740;2023-04-25T01:03:14;56268.97;;;-142.21;86.92
5053;BME280;2545;50.892;5.740;2023-04-25T01:05:43;56276.81;;;-142.21;87.46
5053;BME280;2545;50.892;5.740;2023-04-25T01:08:09;56263.06;;;-142.21;87.20
5053;BME280;2545;50.892;5.740;2023-04-25T01:10:35;56272.88;;;-142.21;87.40
5053;BME280;2545;50.892;5.740;2023-04-25T01:13:00;56304.25;;;-142.21;87.63
5053;BME280;2545;50.892;5.740;2023-04-25T01:15:26;56288.56;;;-142.21;87.94
5053;BME280;2545;50.892;5.740;2023-04-25T01:17:51;56257.19;;;-142.21;88.24
5053;BME280;2545;50.892;5.740;2023-04-25T01:20:20;56219.94;;;-142.21;87.68
5053;BME280;2545;50.892;5.740;2023-04-25T01:22:47;56251.31;;;-142.21;87.56
5053;BME280;2545;50.892;5.740;2023-04-25T01:25:12;56247.38;;;-142.21;88.23
5053;BME280;2545;50.892;5.740;2023-04-25T01:27:38;56282.69;;;-142.21;87.94
5053;BME280;2545;50.892;5.740;2023-04-25T01:30:05;56257.19;;;-142.21;88.50
5053;BME280;2545;50.892;5.740;2023-04-25T01:32:30;56282.69;;;-142.21;88.84
5053;BME280;2545;50.892;5.740;2023-04-25T01:35:07;56239.56;;;-142.21;89.24
5053;BME280;2545;50.892;5.740;2023-04-25T01:37:36;56245.44;;;-142.21;89.99
5053;BME280;2545;50.892;5.740;2023-04-25T01:40:02;56270.91;;;-142.21;90.01
5053;BME280;2545;50.892;5.740;2023-04-25T01:42:27;56278.78;;;-142.21;90.27
5053;BME280;2545;50.892;5.740;2023-04-25T01:44:52;56272.88;;;-142.21;89.64
5053;BME280;2545;50.892;5.740;2023-04-25T01:47:18;56276.81;;;-142.21;89.89
5053;BME280;2545;50.892;5.740;2023-04-25T01:49:43;56319.94;;;-142.21;90.03
5053;BME280;2545;50.892;5.740;2023-04-25T01:52:09;56253.28;;;-142.21;90.24
5053;BME280;2545;50.892;5.740;2023-04-25T01:54:34;56241.50;;;-142.21;91.08
5053;BME280;2545;50.892;5.740;2023-04-25T01:56:59;56276.81;;;-142.21;90.46
5053;BME280;2545;50.892;5.740;2023-04-25T01:59:25;56300.34;;;-142.21;90.65
5053;BME280;2545;50.892;5.740;2023-04-25T02:01:50;56261.13;;;-142.21;90.76
5053;BME280;2545;50.892;5.740;2023-04-25T02:04:16;56241.50;;;-142.21;91.33
5053;BME280;2545;50.892;5.740;2023-04-25T02:06:41;56292.50;;;-142.21;91.82
5053;BME280;2545;50.892;5.740;2023-04-25T02:09:06;56270.91;;;-142.21;92.43
5053;BME280;2545;50.892;5.740;2023-04-25T02:11:32;56231.72;;;-142.21;92.28
5053;BME280;2545;50.892;5.740;2023-04-25T02:13:57;56276.81;;;-142.21;92.81
5053;BME280;2545;50.892;5.740;2023-04-25T02:16:22;56272.88;;;-142.21;92.74
5053;BME280;2545;50.892;5.740;2023-04-25T02:18:48;56274.84;;;-142.21;93.17
5053;BME280;2545;50.892;5.740;2023-04-25T02:21:13;56249.34;;;-142.21;92.93
5053;BME280;2545;50.892;5.740;2023-04-25T02:23:39;56253.28;;;-142.21;92.76
5053;BME280;2545;50.892;5.740;2023-04-25T02:26:04;56257.19;;;-142.21;93.15
5053;BME280;2545;50.892;5.740;2023-04-25T02:28:29;56239.56;;;-142.21;93.62
5053;BME280;2545;50.892;5.740;2023-04-25T02:30:55;56249.34;;;-142.21;94.06
5053;BME280;2545;50.892;5.740;2023-04-25T02:33:21;56282.69;;;-142.21;94.12
5053;BME280;2545;50.892;5.740;2023-04-25T02:35:46;56263.06;;;-142.21;94.46
5053;BME280;2545;50.892;5.740;2023-04-25T02:38:12;56270.91;;;-142.21;93.98
5053;BME280;2545;50.892;5.740;2023-04-25T02:40:37;56296.41;;;-142.21;93.37
5053;BME280;2545;50.892;5.740;2023-04-25T02:43:02;56253.28;;;-142.21;92.88
5053;BME280;2545;50.892;5.740;2023-04-25T02:45:28;56257.19;;;-142.21;92.57
5053;BME280;2545;50.892;5.740;2023-04-25T02:47:53;56310.13;;;-142.21;93.05
5053;BME280;2545;50.892;5.740;2023-04-25T02:50:18;56263.06;;;-142.21;93.29
5053;BME280;2545;50.892;5.740;2023-04-25T02:52:44;56268.97;;;-142.21;93.46
5053;BME280;2545;50.892;5.740;2023-04-25T02:55:10;56288.56;;;-142.21;93.17
5053;BME280;2545;50.892;5.740;2023-04-25T02:57:35;56243.47;;;-142.21;93.34
5053;BME280;2545;50.892;5.740;2023-04-25T03:00:01;56263.06;;;-142.21;93.20
5053;BME280;2545;50.892;5.740;2023-04-25T03:02:26;56276.81;;;-142.21;94.10
5053;BME280;2545;50.892;5.740;2023-04-25T03:04:51;56288.56;;;-142.21;94.37
5053;BME280;2545;50.892;5.740;2023-04-25T03:07:17;56302.28;;;-142.21;94.14
5053;BME280;2545;50.892;5.740;2023-04-25T03:09:42;56251.31;;;-142.21;94.58
5053;BME280;2545;50.892;5.740;2023-04-25T03:12:08;56255.22;;;-142.21;94.90
5053;BME280;2545;50.892;5.740;2023-04-25T03:14:33;56276.81;;;-142.21;95.29
5053;BME280;2545;50.892;5.740;2023-04-25T03:16:58;56290.53;;;-142.21;95.47
5053;BME280;2545;50.892;5.740;2023-04-25T03:19:24;56304.25;;;-142.21;95.72
5053;BME280;2545;50.892;5.740;2023-04-25T03:21:49;56292.50;;;-142.21;96.04
5053;BME280;2545;50.892;5.740;2023-04-25T03:24:14;56300.34;;;-142.21;95.87
5053;BME280;2545;50.892;5.740;2023-04-25T03:26:40;56316.03;;;-142.21;96.10
5053;BME280;2545;50.892;5.740;2023-04-25T03:29:05;56300.34;;;-142.21;95.97
5053;BME280;2545;50.892;5.740;2023-04-25T03:31:30;56263.06;;;-142.21;95.90
5053;BME280;2545;50.892;5.740;2023-04-25T03:33:56;56288.56;;;-142.21;96.29
5053;BME280;2545;50.892;5.740;2023-04-25T03:36:21;56261.13;;;-142.21;96.15
5053;BME280;2545;50.892;5.740;2023-04-25T03:38:46;56257.19;;;-142.21;96.60
5053;BME280;2545;50.892;5.740;2023-04-25T03:41:13;56296.41;;;-142.21;96.45
5053;BME280;2545;50.892;5.740;2023-04-25T03:43:38;56286.63;;;-142.21;96.77
5053;BME280;2545;50.892;5.740;2023-04-25T03:46:04;56272.88;;;-142.21;96.81
5053;BME280;2545;50.892;5.740;2023-04-25T03:48:29;56304.25;;;-142.21;96.64
5053;BME280;2545;50.892;5.740;2023-04-25T03:50:55;56310.13;;;-142.21;96.61
5053;BME280;2545;50.892;5.740;2023-04-25T03:53:20;56282.69;;;-142.21;96.26
5053;BME280;2545;50.892;5.740;2023-04-25T03:55:45;56292.50;;;-142.21;96.21
5053;BME280;2545;50.892;5.740;2023-04-25T03:58:11;56241.50;;;-142.21;96.75
5053;BME280;2545;50.892;5.740;2023-04-25T04:00:36;56270.91;;;-142.21;97.14
5053;BME280;2545;50.892;5.740;2023-04-25T04:03:02;56241.50;;;-142.21;96.60
5053;BME280;2545;50.892;5.740;2023-04-25T04:05:27;56243.47;;;-142.21;96.06
5053;BME280;2545;50.892;5.740;2023-04-25T04:07:53;56288.56;;;-142.21;96.13
5053;BME280;2545;50.892;5.740;2023-04-25T04:10:19;56292.50;;;-142.21;95.86
5053;BME280;2545;50.892;5.740;2023-04-25T04:12:44;56272.88;;;-142.21;96.78
5053;BME280;2545;50.892;5.740;2023-04-25T04:15:10;56261.13;;;-142.21;96.52
5053;BME280;2545;50.892;5.740;2023-04-25T04:17:35;56239.56;;;-142.21;96.97
5053;BME280;2545;50.892;5.740;2023-04-25T04:20:01;56276.81;;;-142.21;97.21
5053;BME280;2545;50.892;5.740;2023-04-25T04:22:26;56253.28;;;-142.21;97.85
5053;BME280;2545;50.892;5.740;2023-04-25T04:24:52;56210.13;;;-142.21;97.58
5053;BME280;2545;50.892;5.740;2023-04-25T04:27:18;56276.81;;;-142.21;97.58
5053;BME280;2545;50.892;5.740;2023-04-25T04:29:44;56261.13;;;-142.21;98.20
5053;BME280;2545;50.892;5.740;2023-04-25T04:32:10;56276.81;;;-142.21;98.19
5053;BME280;2545;50.892;5.740;2023-04-25T04:34:35;56292.50;;;-142.21;98.59
5053;BME280;2545;50.892;5.740;2023-04-25T04:37:01;56292.50;;;-142.21;98.94
5053;BME280;2545;50.892;5.740;2023-04-25T04:39:26;56298.38;;;-142.21;99.09
5053;BME280;2545;50.892;5.740;2023-04-25T04:41:51;56284.66;;;-142.21;99.23
5053;BME280;2545;50.892;5.740;2023-04-25T04:44:17;56276.81;;;-142.21;99.58
5053;BME280;2545;50.892;5.740;2023-04-25T04:46:42;56265.03;;;-142.21;99.15
5053;BME280;2545;50.892;5.740;2023-04-25T04:49:10;56253.28;;;-142.21;98.92
5053;BME280;2545;50.892;5.740;2023-04-25T04:51:35;56276.81;;;-142.21;98.45
5053;BME280;2545;50.892;5.740;2023-04-25T04:54:02;56255.22;;;-142.21;97.87
5053;BME280;2545;50.892;5.740;2023-04-25T04:56:29;56265.03;;;-142.21;97.41
5053;BME280;2545;50.892;5.740;2023-04-25T04:58:56;56294.47;;;-142.21;97.24
5053;BME280;2545;50.892;5.740;2023-04-25T05:01:21;56323.88;;;-142.21;97.42
5053;BME280;2545;50.892;5.740;2023-04-25T05:03:47;56276.81;;;-142.21;97.12
5053;BME280;2545;50.892;5.740;2023-04-25T05:06:12;56274.84;;;-142.21;97.41
5053;BME280;2545;50.892;5.740;2023-04-25T05:08:37;56294.47;;;-142.21;96.66
5053;BME280;2545;50.892;5.740;2023-04-25T05:11:03;56255.22;;;-142.21;96.26
5053;BME280;2545;50.892;5.740;2023-04-25T05:13:28;56296.41;;;-142.21;96.20
5053;BME280;2545;50.892;5.740;2023-04-25T05:15:53;56316.03;;;-142.21;95.65
5053;BME280;2545;50.892;5.740;2023-04-25T05:18:19;56249.34;;;-142.21;95.09
5053;BME280;2545;50.892;5.740;2023-04-25T05:20:44;56257.19;;;-142.21;94.32
5053;BME280;2545;50.892;5.740;2023-04-25T05:23:10;56280.72;;;-142.21;94.39
5053;BME280;2545;50.892;5.740;2023-04-25T05:25:35;56251.31;;;-142.21;93.74
5053;BME280;2545;50.892;5.740;2023-04-25T05:28:00;56278.78;;;-142.21;92.92
5053;BME280;2545;50.892;5.740;2023-04-25T05:30:25;56276.81;;;-142.21;92.82
5053;BME280;2545;50.892;5.740;2023-04-25T05:32:51;56261.13;;;-142.21;91.04
5053;BME280;2545;50.892;5.740;2023-04-25T05:35:16;56288.56;;;-142.21;89.05
5053;BME280;2545;50.892;5.740;2023-04-25T05:37:41;56296.41;;;-142.21;87.43
5053;BME280;2545;50.892;5.740;2023-04-25T05:40:08;56300.34;;;-142.21;86.81
5053;BME280;2545;50.892;5.740;2023-04-25T05:42:34;56267.00;;;-142.21;87.42
5053;BME280;2545;50.892;5.740;2023-04-25T05:44:59;56274.84;;;-142.21;87.13
5053;BME280;2545;50.892;5.740;2023-04-25T05:47:26;56286.63;;;-142.21;87.19
5053;BME280;2545;50.892;5.740;2023-04-25T05:49:51;56276.81;;;-142.21;87.47
5053;BME280;2545;50.892;5.740;2023-04-25T05:52:16;56259.16;;;-142.21;88.29
5053;BME280;2545;50.892;5.740;2023-04-25T05:54:41;56237.59;;;-142.21;87.56
5053;BME280;2545;50.892;5.740;2023-04-25T05:57:07;56272.88;;;-142.21;86.33
5053;BME280;2545;50.892;5.740;2023-04-25T05:59:32;56263.06;;;-142.21;85.61
5053;BME280;2545;50.892;5.740;2023-04-25T06:01:57;56249.34;;;-142.21;84.05
5053;BME280;2545;50.892;5.740;2023-04-25T06:04:23;56229.75;;;-142.21;84.16
5053;BME280;2545;50.892;5.740;2023-04-25T06:06:48;56257.19;;;-142.21;84.48
5053;BME280;2545;50.892;5.740;2023-04-25T06:09:14;56288.56;;;-142.21;83.02
5053;BME280;2545;50.892;5.740;2023-04-25T06:11:39;56292.50;;;-142.21;82.12
5053;BME280;2545;50.892;5.740;2023-04-25T06:14:05;56276.81;;;-142.21;81.51
5053;BME280;2545;50.892;5.740;2023-04-25T06:16:31;56245.44;;;-142.21;81.12
5053;BME280;2545;50.892;5.740;2023-04-25T06:18:56;56280.72;;;-142.21;79.17
5053;BME280;2545;50.892;5.740;2023-04-25T06:21:21;56245.44;;;-142.21;77.61
5053;BME280;2545;50.892;5.740;2023-04-25T06:23:47;56286.63;;;-142.21;77.30
5053;BME280;2545;50.892;5.740;2023-04-25T06:26:12;56304.25;;;-142.21;78.08
5053;BME280;2545;50.892;5.740;2023-04-25T06:28:37;56237.59;;;-142.21;76.85
5053;BME280;2545;50.892;5.740;2023-04-25T06:31:03;56290.53;;;-142.21;75.94
5053;BME280;2545;50.892;5.740;2023-04-25T06:33:28;56265.03;;;-142.21;76.16
5053;BME280;2545;50.892;5.740;2023-04-25T06:35:53;56272.88;;;-142.21;76.62
5053;BME280;2545;50.892;5.740;2023-04-25T06:38:19;56251.31;;;-142.21;75.86
5053;BME280;2545;50.892;5.740;2023-04-25T06:40:44;56298.38;;;-142.21;76.53
5053;BME280;2545;50.892;5.740;2023-04-25T06:43:10;56257.19;;;-142.21;77.63
5053;BME280;2545;50.892;5.740;2023-04-25T06:45:35;56292.50;;;-142.21;76.02
5053;BME280;2545;50.892;5.740;2023-04-25T06:48:00;56221.91;;;-142.21;75.64
5053;BME280;2545;50.892;5.740;2023-04-25T06:50:26;56249.34;;;-142.21;75.18
5053;BME280;2545;50.892;5.740;2023-04-25T06:52:51;56263.06;;;-142.21;74.70
5053;BME280;2545;50.892;5.740;2023-04-25T06:55:17;56253.28;;;-142.21;74.05
5053;BME280;2545;50.892;5.740;2023-04-25T06:57:42;56288.56;;;-142.21;73.13
5053;BME280;2545;50.892;5.740;2023-04-25T07:00:08;56259.16;;;-142.21;73.15
5053;BME280;2545;50.892;5.740;2023-04-25T07:02:35;56245.44;;;-142.21;73.03
5053;BME280;2545;50.892;5.740;2023-04-25T07:05:01;56237.59;;;-142.21;72.27
5053;BME280;2545;50.892;5.740;2023-04-25T07:07:29;56225.81;;;-142.21;71.45
5053;BME280;2545;50.892;5.740;2023-04-25T07:09:55;56282.69;;;-142.21;71.46
5053;BME280;2545;50.892;5.740;2023-04-25T07:12:20;56288.56;;;-142.21;72.19
5053;BME280;2545;50.892;5.740;2023-04-25T07:14:46;56249.34;;;-142.21;71.15
5053;BME280;2545;50.892;5.740;2023-04-25T07:17:11;56261.13;;;-142.21;69.26
5053;BME280;2545;50.892;5.740;2023-04-25T07:19:36;56268.97;;;-142.21;68.22
5053;BME280;2545;50.892;5.740;2023-04-25T07:22:04;56202.28;;;-142.21;67.57
5053;BME280;2545;50.892;5.740;2023-04-25T07:24:29;56249.34;;;-142.21;67.83
5053;BME280;2545;50.892;5.740;2023-04-25T07:26:54;56296.41;;;-142.21;66.64
5053;BME280;2545;50.892;5.740;2023-04-25T07:29:19;56261.13;;;-142.21;65.99
5053;BME280;2545;50.892;5.740;2023-04-25T07:31:45;56265.03;;;-142.21;65.53
5053;BME280;2545;50.892;5.740;2023-04-25T07:34:10;56265.03;;;-142.21;65.17
5053;BME280;2545;50.892;5.740;2023-04-25T07:36:35;56247.38;;;-142.21;64.86
5053;BME280;2545;50.892;5.740;2023-04-25T07:39:01;56272.88;;;-142.21;64.01
5053;BME280;2545;50.892;5.740;2023-04-25T07:41:26;56261.13;;;-142.21;64.37
5053;BME280;2545;50.892;5.740;2023-04-25T07:43:51;56268.97;;;-142.21;63.97
5053;BME280;2545;50.892;5.740;2023-04-25T07:46:17;56261.13;;;-142.21;62.48
5053;BME280;2545;50.892;5.740;2023-04-25T07:48:42;56259.16;;;-142.21;61.08
5053;BME280;2545;50.892;5.740;2023-04-25T07:51:07;56276.81;;;-142.21;61.08
5053;BME280;2545;50.892;5.740;2023-04-25T07:53:33;56280.72;;;-142.21;61.08
5053;BME280;2545;50.892;5.740;2023-04-25T07:55:59;56257.19;;;-142.21;59.84
5053;BME280;2545;50.892;5.740;2023-04-25T07:58:25;56249.34;;;-142.21;58.98
5053;BME280;2545;50.892;5.740;2023-04-25T08:00:50;56270.91;;;-142.21;59.45
5053;BME280;2545;50.892;5.740;2023-04-25T08:03:16;56225.81;;;-142.21;59.36
5053;BME280;2545;50.892;5.740;2023-04-25T08:05:41;56219.94;;;-142.21;57.68
5053;BME280;2545;50.892;5.740;2023-04-25T08:08:06;56257.19;;;-142.21;58.44
5053;BME280;2545;50.892;5.740;2023-04-25T08:10:32;56257.19;;;-142.21;56.07
5053;BME280;2545;50.892;5.740;2023-04-25T08:12:59;56261.13;;;-142.21;56.13
5053;BME280;2545;50.892;5.740;2023-04-25T08:15:24;56237.59;;;-142.21;56.29
5053;BME280;2545;50.892;5.740;2023-04-25T08:17:50;56229.75;;;-142.21;56.89
5053;BME280;2545;50.892;5.740;2023-04-25T08:20:15;56255.22;;;-142.21;54.97
5053;BME280;2545;50.892;5.740;2023-04-25T08:22:42;56231.72;;;-142.21;52.11
5053;BME280;2545;50.892;5.740;2023-04-25T08:25:07;56233.66;;;-142.21;50.40
5053;BME280;2545;50.892;5.740;2023-04-25T08:27:33;56251.31;;;-142.21;50.56
5053;BME280;2545;50.892;5.740;2023-04-25T08:29:58;56257.19;;;-142.21;51.39
5053;BME280;2545;50.892;5.740;2023-04-25T08:32:23;56219.94;;;-142.21;49.52
5053;BME280;2545;50.892;5.740;2023-04-25T08:34:49;56214.06;;;-142.21;49.49
5053;BME280;2545;50.892;5.740;2023-04-25T08:37:16;56206.22;;;-142.21;50.16
5053;BME280;2545;50.892;5.740;2023-04-25T08:39:41;56239.56;;;-142.21;50.06
5053;BME280;2545;50.892;5.740;2023-04-25T08:42:07;56208.16;;;-142.21;50.52
5053;BME280;2545;50.892;5.740;2023-04-25T08:44:33;56239.56;;;-142.21;50.14
5053;BME280;2545;50.892;5.740;2023-04-25T08:47:01;56190.53;;;-142.21;48.72
5053;BME280;2545;50.892;5.740;2023-04-25T08:49:26;56268.97;;;-142.21;49.06
5053;BME280;2545;50.892;5.740;2023-04-25T08:51:53;56212.09;;;-142.21;48.24
5053;BME280;2545;50.892;5.740;2023-04-25T08:54:27;56216.00;;;-142.21;47.91
5053;BME280;2545;50.892;5.740;2023-04-25T08:56:54;56206.22;;;-142.21;48.48
5053;BME280;2545;50.892;5.740;2023-04-25T08:59:22;56247.38;;;-142.21;48.07
5053;BME280;2545;50.892;5.740;2023-04-25T09:01:49;56216.00;;;-142.21;49.21
5053;BME280;2545;50.892;5.740;2023-04-25T09:04:14;56227.78;;;-142.21;50.74
5053;BME280;2545;50.892;5.740;2023-04-25T09:06:40;56204.25;;;-142.21;49.21
5053;BME280;2545;50.892;5.740;2023-04-25T09:09:06;56233.66;;;-142.21;49.05
5053;BME280;2545;50.892;5.740;2023-04-25T09:11:33;56219.94;;;-142.21;48.02
5053;BME280;2545;50.892;5.740;2023-04-25T09:19:27;56239.56;;;-142.21;49.03
5053;BME280;2545;50.892;5.740;2023-04-25T09:21:57;56206.22;;;-142.21;49.15
5053;BME280;2545;50.892;5.740;2023-04-25T09:24:39;56245.44;;;-142.21;50.02
5053;BME280;2545;50.892;5.740;2023-04-25T09:27:08;56188.56;;;-142.21;52.09
5053;BME280;2545;50.892;5.740;2023-04-25T09:29:35;56216.00;;;-142.21;52.46
5053;BME280;2545;50.892;5.740;2023-04-25T09:32:19;56261.13;;;-142.21;53.17
5053;BME280;2545;50.892;5.740;2023-04-25T09:34:48;56239.56;;;-142.21;48.62
5053;BME280;2545;50.892;5.740;2023-04-25T09:37:22;56198.38;;;-142.21;48.55
5053;BME280;2545;50.892;5.740;2023-04-25T09:39:49;56219.94;;;-142.21;45.80
5053;BME280;2545;50.892;5.740;2023-04-25T09:42:16;56202.28;;;-142.21;44.27
5053;BME280;2545;50.892;5.740;2023-04-25T09:44:43;56200.34;;;-142.21;44.67
5053;BME280;2545;50.892;5.740;2023-04-25T09:47:13;56208.16;;;-142.21;43.78
5053;BME280;2545;50.892;5.740;2023-04-25T09:49:40;56217.97;;;-142.21;43.64
5053;BME280;2545;50.892;5.740;2023-04-25T09:52:07;56267.00;;;-142.21;42.89
5053;BME280;2545;50.892;5.740;2023-04-25T09:54:32;56255.22;;;-142.21;42.63
5053;BME280;2545;50.892;5.740;2023-04-25T09:57:11;56198.38;;;-142.21;42.61
5053;BME280;2545;50.892;5.740;2023-04-25T09:59:51;56208.16;;;-142.21;42.13
5053;BME280;2545;50.892;5.740;2023-04-25T10:02:18;56208.16;;;-142.21;42.68
5053;BME280;2545;50.892;5.740;2023-04-25T10:04:48;56188.56;;;-142.21;41.13
5053;BME280;2545;50.892;5.740;2023-04-25T10:07:14;56225.81;;;-142.21;40.78
5053;BME280;2545;50.892;5.740;2023-04-25T10:09:39;56202.28;;;-142.21;40.96
5053;BME280;2545;50.892;5.740;2023-04-25T10:12:06;56233.66;;;-142.21;41.35
5053;BME280;2545;50.892;5.740;2023-04-25T10:14:33;56186.59;;;-142.21;40.15
5053;BME280;2545;50.892;5.740;2023-04-25T10:16:59;56194.44;;;-142.21;39.16
5053;BME280;2545;50.892;5.740;2023-04-25T10:19:25;56165.03;;;-142.21;37.53
5053;BME280;2545;50.892;5.740;2023-04-25T10:22:02;56186.59;;;-142.21;37.57
5053;BME280;2545;50.892;5.740;2023-04-25T10:24:28;56198.38;;;-142.21;37.72
5053;BME280;2545;50.892;5.740;2023-04-25T10:26:53;56165.03;;;-142.21;38.31
5053;BME280;2545;50.892;5.740;2023-04-25T10:29:24;56188.56;;;-142.21;36.67
5053;BME280;2545;50.892;5.740;2023-04-25T10:31:50;56163.06;;;-142.21;36.76
5053;BME280;2545;50.892;5.740;2023-04-25T10:34:16;56170.91;;;-142.21;35.88
5053;BME280;2545;50.892;5.740;2023-04-25T10:36:41;56163.06;;;-142.21;37.41
5053;BME280;2545;50.892;5.740;2023-04-25T10:39:08;56204.25;;;-142.21;39.23
5053;BME280;2545;50.892;5.740;2023-04-25T10:42:06;56186.59;;;-142.21;40.90
5053;BME280;2545;50.892;5.740;2023-04-25T10:44:33;56174.84;;;-142.21;42.15
5053;BME280;2545;50.892;5.740;2023-04-25T10:47:00;56214.06;;;-142.21;44.39
5053;BME280;2545;50.892;5.740;2023-04-25T10:49:37;56221.91;;;-142.21;46.55
5053;BME280;2545;50.892;5.740;2023-04-25T10:52:13;56184.66;;;-142.21;49.40
5053;BME280;2545;50.892;5.740;2023-04-25T10:55:03;56196.41;;;-142.21;50.97
5053;BME280;2545;50.892;5.740;2023-04-25T10:57:40;56221.91;;;-142.21;52.84
5053;BME280;2545;50.892;5.740;2023-04-25T11:00:13;56196.41;;;-142.21;53.71
5053;BME280;2545;50.892;5.740;2023-04-25T11:07:55;56210.13;;;-142.21;51.41
5053;BME280;2545;50.892;5.740;2023-04-25T11:10:28;56182.69;;;-142.21;49.71
5053;BME280;2545;50.892;5.740;2023-04-25T11:12:54;56227.78;;;-142.21;49.24
5053;BME280;2545;50.892;5.740;2023-04-25T11:15:20;56210.13;;;-142.21;47.16
5053;BME280;2545;50.892;5.740;2023-04-25T11:17:45;56239.56;;;-142.21;45.68
5053;BME280;2545;50.892;5.740;2023-04-25T11:20:12;56241.50;;;-142.21;45.30
5053;BME280;2545;50.892;5.740;2023-04-25T11:22:40;56192.50;;;-142.21;44.20
5053;BME280;2545;50.892;5.740;2023-04-25T11:25:09;56225.81;;;-142.21;44.22
5053;BME280;2545;50.892;5.740;2023-04-25T11:27:57;56214.06;;;-142.21;43.61
5053;BME280;2545;50.892;5.740;2023-04-25T11:30:23;56208.16;;;-142.21;43.29
5053;BME280;2545;50.892;5.740;2023-04-25T11:32:48;56194.44;;;-142.21;42.75
5053;BME280;2545;50.892;5.740;2023-04-25T11:35:14;56198.38;;;-142.21;43.37
5053;BME280;2545;50.892;5.740;2023-04-25T11:37:40;56188.56;;;-142.21;42.26
5053;BME280;2545;50.892;5.740;2023-04-25T11:40:06;56206.22;;;-142.21;42.78
5053;BME280;2545;50.892;5.740;2023-04-25T11:42:32;56206.22;;;-142.21;42.34
5053;BME280;2545;50.892;5.740;2023-04-25T11:45:01;56196.41;;;-142.21;41.56
5053;BME280;2545;50.892;5.740;2023-04-25T11:47:30;56225.81;;;-142.21;41.97
5053;BME280;2545;50.892;5.740;2023-04-25T11:49:55;56210.13;;;-142.21;41.74
5053;BME280;2545;50.892;5.740;2023-04-25T11:52:20;56186.59;;;-142.21;42.29
5053;BME280;2545;50.892;5.740;2023-04-25T11:54:46;56208.16;;;-142.21;42.10
5053;BME280;2545;50.892;5.740;2023-04-25T11:57:11;56208.16;;;-142.21;42.35
5053;BME280;2545;50.892;5.740;2023-04-25T11:59:37;56198.38;;;-142.21;41.25
5053;BME280;2545;50.892;5.740;2023-04-25T12:02:02;56168.97;;;-142.21;40.92
5053;BME280;2545;50.892;5.740;2023-04-25T12:04:30;56184.66;;;-142.21;41.86
5053;BME280;2545;50.892;5.740;2023-04-25T12:06:55;56188.56;;;-142.21;41.29
5053;BME280;2545;50.892;5.740;2023-04-25T12:09:29;56200.34;;;-142.21;40.77
5053;BME280;2545;50.892;5.740;2023-04-25T12:11:56;56210.13;;;-142.21;40.96
5053;BME280;2545;50.892;5.740;2023-04-25T12:14:25;56221.91;;;-142.21;40.39
5053;BME280;2545;50.892;5.740;2023-04-25T12:16:52;56196.41;;;-142.21;39.85
5053;BME280;2545;50.892;5.740;2023-04-25T12:19:19;56182.69;;;-142.21;37.65
5053;BME280;2545;50.892;5.740;2023-04-25T12:21:45;56153.28;;;-142.21;36.55
5053;BME280;2545;50.892;5.740;2023-04-25T12:24:15;56145.44;;;-142.21;33.59
5053;BME280;2545;50.892;5.740;2023-04-25T12:27:00;56135.63;;;-142.21;32.94
5053;BME280;2545;50.892;5.740;2023-04-25T12:29:28;56094.44;;;-142.21;32.00
5053;BME280;2545;50.892;5.740;2023-04-25T12:31:55;56157.19;;;-142.21;31.80
5053;BME280;2545;50.892;5.740;2023-04-25T12:34:22;56123.84;;;-142.21;32.42
5053;BME280;2545;50.892;5.740;2023-04-25T12:36:48;56117.97;;;-142.21;32.08
5053;BME280;2545;50.892;5.740;2023-04-25T12:39:21;56098.38;;;-142.21;30.15
5053;BME280;2545;50.892;5.740;2023-04-25T12:41:47;56080.72;;;-142.21;28.50
5053;BME280;2545;50.892;5.740;2023-04-25T12:44:13;56106.22;;;-142.21;28.35
5053;BME280;2545;50.892;5.740;2023-04-25T12:46:40;56119.94;;;-142.21;29.32
5053;BME280;2545;50.892;5.740;2023-04-25T12:49:06;56116.00;;;-142.21;29.48
5053;BME280;2545;50.892;5.740;2023-04-25T12:51:33;56088.56;;;-142.21;29.02
5053;BME280;2545;50.892;5.740;2023-04-25T12:53:59;56123.84;;;-142.21;30.00
5053;BME280;2545;50.892;5.740;2023-04-25T12:56:25;56155.22;;;-142.21;31.97
5053;BME280;2545;50.892;5.740;2023-04-25T12:58:51;56141.50;;;-142.21;33.49
5053;BME280;2545;50.892;5.740;2023-04-25T13:01:17;56172.88;;;-142.21;34.39
5053;BME280;2545;50.892;5.740;2023-04-25T13:03:42;56151.31;;;-142.21;34.96
5053;BME280;2545;50.892;5.740;2023-04-25T13:06:08;56133.66;;;-142.21;36.97